Time;durP1;ratioP1;P1;durP2;ratioP2;P2;SDS_P1;SDS_P2;PMS_P1;PMS_P2;Temp;Humidity;BMP_temperature;BMP_pressure;BME280_temperature;BME280_humidity;BME280_pressure;Samples;Min_cycle;Max_cycle;Signal;HPM_P1;HPM_P2
2020/12/28 00:01:06;;;;;;;10.07;3.90;;;14.20;67.30;;;;;;4967067;28;20030;-66
2020/12/28 00:03:32;;;;;;;14.57;4.60;;;14.20;67.40;;;;;;4960101;28;20042;-65
2020/12/28 00:05:57;;;;;;;12.27;4.13;;;14.10;67.40;;;;;;4977685;28;20373;-66
2020/12/28 00:08:23;;;;;;;14.43;4.22;;;14.20;67.50;;;;;;4980663;28;20035;-65
2020/12/28 00:10:48;;;;;;;10.00;3.63;;;14.20;67.20;;;;;;4960531;28;20042;-65
2020/12/28 00:13:14;;;;;;;12.18;3.95;;;14.20;67.20;;;;;;4986032;28;20119;-65
2020/12/28 00:15:39;;;;;;;12.57;3.33;;;14.20;67.20;;;;;;4972331;28;20058;-66
2020/12/28 00:18:05;;;;;;;11.02;3.95;;;14.20;67.10;;;;;;4973150;28;20490;-66
2020/12/28 00:20:32;;;;;;;9.75;3.72;;;14.30;67.30;;;;;;4992376;28;20030;-65
2020/12/28 00:22:58;;;;;;;10.30;3.60;;;14.30;67.30;;;;;;4972906;28;20066;-66
2020/12/28 00:25:27;;;;;;;10.68;3.42;;;14.30;67.10;;;;;;4974709;28;20476;-66
2020/12/28 00:27:54;;;;;;;10.15;3.28;;;14.30;67.10;;;;;;4989893;28;20058;-66
2020/12/28 00:30:20;;;;;;;12.95;3.40;;;14.30;67.20;;;;;;4975576;28;20746;-66
2020/12/28 00:32:45;;;;;;;10.32;3.22;;;14.30;67.30;;;;;;4976346;28;20067;-65
2020/12/28 00:35:11;;;;;;;8.73;3.35;;;14.30;67.20;;;;;;4967072;28;20026;-64
2020/12/28 00:37:38;;;;;;;9.48;3.15;;;14.30;67.30;;;;;;4992335;28;20050;-66
2020/12/28 00:40:05;;;;;;;10.38;2.60;;;14.30;67.40;;;;;;4983574;28;20499;-67
2020/12/28 00:42:31;;;;;;;10.48;3.50;;;14.40;67.40;;;;;;4974303;28;20049;-66
2020/12/28 00:44:57;;;;;;;7.85;2.67;;;14.30;67.10;;;;;;4973977;28;20027;-64
2020/12/28 00:47:22;;;;;;;8.68;2.72;;;14.30;67.20;;;;;;4966442;28;20031;-64
2020/12/28 00:49:48;;;;;;;9.02;2.65;;;14.30;67.10;;;;;;4975951;28;20035;-66
2020/12/28 00:52:13;;;;;;;7.28;2.80;;;14.30;67.20;;;;;;4974776;28;20427;-65
2020/12/28 00:54:39;;;;;;;8.43;2.47;;;14.30;67.10;;;;;;4992499;28;20034;-65
2020/12/28 00:57:04;;;;;;;10.63;2.90;;;14.30;67.10;;;;;;4993457;28;20035;-66
2020/12/28 00:59:30;;;;;;;8.18;2.45;;;14.40;67.30;;;;;;4993737;28;20041;-65
2020/12/28 01:01:57;;;;;;;9.30;2.55;;;14.30;67.00;;;;;;4976088;28;20027;-66
2020/12/28 01:04:23;;;;;;;6.70;2.45;;;14.30;67.20;;;;;;4975896;28;20117;-66
2020/12/28 01:06:49;;;;;;;7.63;2.40;;;14.30;67.20;;;;;;4975851;28;20022;-66
2020/12/28 01:09:15;;;;;;;7.80;2.28;;;14.40;67.30;;;;;;4993426;28;20037;-65
2020/12/28 01:11:42;;;;;;;11.98;3.00;;;14.30;67.20;;;;;;4993457;28;20061;-66
2020/12/28 01:14:08;;;;;;;9.10;2.30;;;14.30;67.20;;;;;;4975715;28;20022;-66
2020/12/28 01:16:33;;;;;;;7.95;2.30;;;14.30;67.30;;;;;;4992316;28;20081;-66
2020/12/28 01:18:59;;;;;;;10.68;2.03;;;14.40;67.30;;;;;;4995805;28;20034;-65
2020/12/28 01:21:25;;;;;;;4.60;1.80;;;14.30;67.10;;;;;;4977732;28;20022;-64
2020/12/28 01:23:50;;;;;;;5.40;1.90;;;14.30;67.00;;;;;;4992321;28;20031;-67
2020/12/28 01:26:17;;;;;;;6.70;2.10;;;14.30;67.20;;;;;;4992225;28;20117;-67
2020/12/28 01:28:44;;;;;;;5.07;1.60;;;14.30;67.20;;;;;;4992735;28;20056;-66
2020/12/28 01:31:09;;;;;;;6.35;1.70;;;14.30;67.30;;;;;;4991755;28;20034;-64
2020/12/28 01:33:35;;;;;;;5.32;1.73;;;14.30;67.10;;;;;;4992588;28;20037;-66
2020/12/28 01:36:01;;;;;;;6.10;1.92;;;14.30;67.20;;;;;;4986583;28;20502;-65
2020/12/28 01:38:26;;;;;;;4.93;1.70;;;14.30;67.20;;;;;;4990677;28;20034;-66
2020/12/28 01:40:52;;;;;;;4.78;1.65;;;14.30;67.30;;;;;;4992338;28;20031;-66
2020/12/28 01:43:18;;;;;;;5.85;1.60;;;14.30;67.30;;;;;;4974426;28;20110;-65
2020/12/28 01:45:44;;;;;;;4.57;1.63;;;14.30;67.20;;;;;;4974652;28;20552;-66
2020/12/28 01:48:09;;;;;;;6.20;1.50;;;14.30;67.20;;;;;;4991422;28;20101;-63
2020/12/28 01:50:35;;;;;;;5.68;1.50;;;14.30;67.10;;;;;;4990598;28;20014;-65
2020/12/28 01:53:02;;;;;;;7.95;2.00;;;14.30;67.10;;;;;;4973325;28;20035;-65
2020/12/28 01:55:27;;;;;;;4.65;1.40;;;14.30;67.20;;;;;;4974101;28;20117;-65
2020/12/28 01:57:54;;;;;;;4.75;1.35;;;14.30;67.00;;;;;;4991139;28;20149;-65
2020/12/28 02:00:19;;;;;;;4.63;1.65;;;14.30;67.10;;;;;;4974472;28;20026;-66
2020/12/28 02:02:45;;;;;;;4.25;1.25;;;14.30;67.10;;;;;;4974210;28;20030;-65
2020/12/28 02:05:11;;;;;;;4.30;1.25;;;14.30;67.00;;;;;;4991480;28;20027;-65
2020/12/28 02:07:39;;;;;;;3.65;1.13;;;14.30;67.00;;;;;;4973857;28;20054;-66
2020/12/28 02:10:08;;;;;;;6.97;1.35;;;14.30;66.80;;;;;;4974148;28;20559;-67
2020/12/28 02:12:35;;;;;;;6.18;1.30;;;14.30;66.60;;;;;;4973766;28;20026;-65
2020/12/28 02:15:29;;;;;;;6.30;1.52;;;14.20;66.50;;;;;;4991622;28;20372;-66
2020/12/28 02:17:54;;;;;;;4.90;1.33;;;14.20;66.20;;;;;;4989539;28;20115;-65
2020/12/28 02:20:20;;;;;;;3.75;1.00;;;14.20;66.30;;;;;;4973958;28;20105;-64
2020/12/28 02:22:45;;;;;;;5.65;1.17;;;14.10;66.40;;;;;;4973451;28;20105;-66
2020/12/28 02:25:11;;;;;;;6.10;1.45;;;14.10;66.50;;;;;;4991058;28;20414;-65
2020/12/28 02:27:36;;;;;;;3.22;0.88;;;14.10;67.20;;;;;;4990962;28;20505;-65
2020/12/28 02:30:04;;;;;;;5.30;1.80;;;14.10;66.70;;;;;;4991429;28;20102;-65
2020/12/28 02:32:30;;;;;;;3.55;1.17;;;14.10;66.70;;;;;;4973356;28;20113;-66
2020/12/28 02:34:55;;;;;;;4.97;1.10;;;14.10;66.60;;;;;;4974079;28;20050;-65
2020/12/28 02:37:21;;;;;;;3.65;1.00;;;14.10;66.50;;;;;;4991382;28;20165;-65
2020/12/28 02:39:46;;;;;;;5.05;1.20;;;14.00;66.40;;;;;;4992117;28;20038;-64
2020/12/28 02:42:12;;;;;;;3.55;0.90;;;14.00;66.40;;;;;;4990558;28;20483;-66
2020/12/28 02:44:37;;;;;;;3.78;1.20;;;14.00;66.60;;;;;;4990689;28;20049;-66
2020/12/28 02:47:03;;;;;;;3.85;1.17;;;14.00;66.50;;;;;;4973387;28;20510;-64
2020/12/28 02:49:28;;;;;;;3.22;0.90;;;14.00;66.40;;;;;;4973872;28;20053;-64
2020/12/28 02:51:54;;;;;;;3.10;0.98;;;14.10;66.50;;;;;;4991228;28;20031;-66
2020/12/28 02:54:19;;;;;;;4.55;1.08;;;14.00;66.40;;;;;;4990635;28;20084;-62
2020/12/28 02:56:45;;;;;;;5.05;0.90;;;14.00;66.40;;;;;;4991129;28;20042;-63
2020/12/28 02:59:10;;;;;;;2.25;0.80;;;14.00;66.90;;;;;;4990805;28;20038;-64
2020/12/28 03:01:37;;;;;;;2.38;0.90;;;14.00;66.40;;;;;;4991025;28;20026;-66
2020/12/28 03:04:03;;;;;;;3.03;0.85;;;14.00;66.30;;;;;;4973421;28;20053;-65
2020/12/28 03:06:29;;;;;;;1.80;0.70;;;14.00;66.40;;;;;;4989885;28;20528;-66
2020/12/28 03:08:55;;;;;;;2.80;0.80;;;14.00;66.30;;;;;;4990852;28;20041;-66
2020/12/28 03:11:20;;;;;;;2.67;0.75;;;14.00;66.20;;;;;;4991060;28;20040;-66
2020/12/28 03:13:46;;;;;;;3.58;0.80;;;13.90;66.30;;;;;;4990649;28;20046;-66
2020/12/28 03:16:12;;;;;;;4.53;0.90;;;13.90;66.30;;;;;;4973261;28;20080;-66
2020/12/28 03:18:37;;;;;;;3.35;0.90;;;13.90;66.30;;;;;;4990664;28;20064;-66
2020/12/28 03:21:03;;;;;;;3.03;0.70;;;13.90;66.10;;;;;;4973174;28;20061;-66
2020/12/28 03:23:28;;;;;;;4.63;1.00;;;13.90;66.10;;;;;;4973571;28;20035;-66
2020/12/28 03:25:54;;;;;;;4.13;0.73;;;13.90;66.20;;;;;;4990133;28;20049;-65
2020/12/28 03:28:19;;;;;;;3.45;0.77;;;13.90;66.00;;;;;;4990536;28;20089;-65
2020/12/28 03:30:45;;;;;;;1.30;0.50;;;13.90;66.10;;;;;;4990768;28;20038;-65
2020/12/28 03:33:10;;;;;;;1.50;0.60;;;13.90;66.20;;;;;;4973188;28;20491;-65
2020/12/28 03:35:36;;;;;;;4.38;0.85;;;13.90;66.20;;;;;;4991008;28;20022;-65
2020/12/28 03:38:02;;;;;;;2.85;0.77;;;13.90;66.10;;;;;;4990577;28;20391;-67
2020/12/28 03:40:27;;;;;;;2.55;0.70;;;13.80;66.10;;;;;;4990385;28;20030;-65
2020/12/28 03:42:53;;;;;;;2.40;0.52;;;13.90;66.00;;;;;;4990489;28;20041;-66
2020/12/28 03:45:18;;;;;;;0.88;0.47;;;13.90;66.00;;;;;;4990454;28;20034;-66
2020/12/28 03:47:44;;;;;;;1.70;0.63;;;13.90;66.00;;;;;;4973227;28;20499;-66
2020/12/28 03:50:09;;;;;;;1.65;0.52;;;13.80;65.80;;;;;;4990412;28;20570;-67
2020/12/28 03:52:39;;;;;;;2.53;0.80;;;13.90;65.90;;;;;;4990554;28;20030;-66
2020/12/28 03:55:05;;;;;;;3.58;0.60;;;13.80;66.00;;;;;;4993320;28;20049;-65
2020/12/28 03:57:31;;;;;;;3.53;0.80;;;13.80;66.00;;;;;;4976678;28;20022;-64
2020/12/28 03:59:57;;;;;;;1.60;0.60;;;13.80;66.00;;;;;;4976988;28;20022;-66
2020/12/28 04:02:22;;;;;;;1.70;0.55;;;13.80;66.00;;;;;;4977460;28;20023;-65
2020/12/28 04:04:48;;;;;;;3.63;0.70;;;13.80;66.10;;;;;;4976259;28;20018;-67
2020/12/28 04:07:13;;;;;;;2.05;0.50;;;13.80;66.10;;;;;;4994301;28;20474;-65
2020/12/28 04:09:39;;;;;;;1.80;0.77;;;13.70;66.10;;;;;;4994440;28;20027;-66
2020/12/28 04:12:04;;;;;;;1.75;0.60;;;13.70;66.10;;;;;;4976710;28;20027;-66
2020/12/28 04:14:29;;;;;;;1.02;0.30;;;13.80;66.10;;;;;;4976141;28;20548;-66
2020/12/28 04:16:55;;;;;;;0.90;0.40;;;13.80;66.00;;;;;;4994036;28;20118;-66
2020/12/28 04:19:20;;;;;;;3.05;0.60;;;13.80;66.00;;;;;;4994174;28;20096;-67
2020/12/28 04:21:46;;;;;;;2.30;0.80;;;13.80;66.00;;;;;;4994161;28;20042;-66
2020/12/28 04:24:15;;;;;;;1.73;0.45;;;13.80;66.00;;;;;;4993681;28;20030;-65
2020/12/28 04:26:42;;;;;;;1.75;0.50;;;13.80;66.00;;;;;;4993892;28;20113;-65
2020/12/28 04:29:08;;;;;;;2.78;0.98;;;13.80;66.00;;;;;;4993656;28;20026;-66
2020/12/28 04:31:33;;;;;;;2.47;0.50;;;13.80;66.10;;;;;;4993741;28;20022;-66
2020/12/28 04:33:59;;;;;;;3.65;0.70;;;13.80;66.10;;;;;;4993581;28;20022;-66
2020/12/28 04:36:24;;;;;;;1.35;0.68;;;13.80;66.00;;;;;;4993321;28;20042;-66
2020/12/28 04:38:50;;;;;;;2.72;0.60;;;13.80;66.10;;;;;;4976624;28;20037;-65
2020/12/28 04:41:15;;;;;;;2.78;0.63;;;13.80;66.10;;;;;;4993990;28;20069;-65
2020/12/28 04:43:41;;;;;;;2.83;0.68;;;13.80;66.10;;;;;;4993927;28;20121;-66
2020/12/28 04:46:07;;;;;;;1.67;0.63;;;13.70;66.10;;;;;;4975607;28;20564;-64
2020/12/28 04:48:33;;;;;;;1.30;0.40;;;13.70;66.10;;;;;;4993330;28;20061;-66
2020/12/28 04:51:00;;;;;;;1.08;0.50;;;13.70;66.10;;;;;;4976082;28;20018;-66
2020/12/28 04:53:28;;;;;;;1.08;0.50;;;13.70;66.20;;;;;;4993396;28;20050;-66
2020/12/28 04:55:53;;;;;;;3.28;0.60;;;13.70;66.10;;;;;;4993706;28;20105;-66
2020/12/28 04:58:19;;;;;;;1.40;0.70;;;13.70;66.10;;;;;;4992593;28;20114;-67
2020/12/28 05:00:45;;;;;;;1.67;0.73;;;13.70;66.00;;;;;;4975561;28;20035;-64
2020/12/28 05:03:12;;;;;;;1.17;0.65;;;13.70;65.90;;;;;;4992697;28;20031;-65
2020/12/28 05:05:45;;;;;;;2.08;0.60;;;13.70;66.60;;;;;;4991809;28;20031;-66
2020/12/28 05:08:11;;;;;;;0.57;0.40;;;13.70;66.00;;;;;;4975685;28;20086;-66
2020/12/28 05:10:37;;;;;;;4.53;0.82;;;13.70;66.10;;;;;;4975551;28;20105;-64
2020/12/28 05:13:09;;;;;;;2.60;0.68;;;13.60;66.10;;;;;;4973766;28;20292;-66
2020/12/28 05:15:43;;;;;;;2.33;0.90;;;13.70;66.10;;;;;;4978091;28;20105;-66
2020/12/28 05:18:08;;;;;;;2.95;0.57;;;13.70;66.30;;;;;;4982981;28;20049;-66
2020/12/28 05:20:34;;;;;;;7.47;0.70;;;13.70;66.40;;;;;;4976355;28;20027;-66
2020/12/28 05:23:00;;;;;;;1.95;0.50;;;13.70;66.30;;;;;;4975051;28;20606;-65
2020/12/28 05:25:26;;;;;;;1.77;0.50;;;13.70;66.30;;;;;;4993001;28;20034;-66
2020/12/28 05:27:56;;;;;;;3.65;0.60;;;13.70;66.30;;;;;;4992490;28;20034;-66
2020/12/28 05:30:23;;;;;;;1.52;0.43;;;13.70;66.20;;;;;;4975945;28;20387;-67
2020/12/28 05:32:49;;;;;;;3.92;0.50;;;13.70;66.20;;;;;;4992782;28;20030;-65
2020/12/28 05:35:15;;;;;;;2.25;0.40;;;13.70;66.20;;;;;;4993075;28;20025;-67
2020/12/28 05:37:44;;;;;;;1.60;0.65;;;13.70;66.30;;;;;;4992186;28;20026;-66
2020/12/28 05:40:10;;;;;;;3.67;0.80;;;13.70;66.30;;;;;;4975444;28;20105;-66
2020/12/28 05:42:37;;;;;;;4.82;0.70;;;13.70;66.50;;;;;;4992638;28;20494;-67
2020/12/28 05:45:08;;;;;;;3.63;0.77;;;13.70;66.50;;;;;;4992261;28;20031;-67
2020/12/28 05:47:41;;;;;;;3.00;0.70;;;13.70;66.50;;;;;;4992271;28;20292;-67
2020/12/28 05:50:08;;;;;;;5.68;0.63;;;13.70;66.50;;;;;;4992170;28;20027;-65
2020/12/28 05:52:36;;;;;;;8.68;1.45;;;13.70;66.50;;;;;;4991557;28;20441;-67
2020/12/28 05:55:03;;;;;;;11.02;0.85;;;13.70;66.50;;;;;;4974246;28;20030;-66
2020/12/28 05:57:29;;;;;;;4.47;0.95;;;13.70;66.50;;;;;;4992201;28;20037;-66
2020/12/28 05:59:56;;;;;;;6.78;0.82;;;13.90;66.80;;;;;;4992373;28;20034;-66
2020/12/28 06:02:25;;;;;;;5.18;0.77;;;13.70;66.60;;;;;;4968943;28;20038;-67
2020/12/28 06:04:52;;;;;;;8.23;0.80;;;13.70;66.60;;;;;;4991816;28;20038;-67
2020/12/28 06:07:20;;;;;;;8.63;1.02;;;13.70;66.60;;;;;;4992087;28;20041;-67
2020/12/28 06:09:52;;;;;;;10.48;1.13;;;13.70;66.50;;;;;;4974123;28;20139;-68
2020/12/28 06:12:17;;;;;;;6.53;0.95;;;13.70;66.40;;;;;;4961395;28;20022;-66
2020/12/28 06:14:43;;;;;;;6.30;0.90;;;13.70;66.40;;;;;;4966670;28;20380;-64
2020/12/28 06:17:10;;;;;;;3.55;1.08;;;13.70;66.50;;;;;;4978844;28;20117;-67
2020/12/28 06:19:36;;;;;;;4.43;0.50;;;13.70;66.40;;;;;;4973431;28;20030;-67
2020/12/28 06:22:02;;;;;;;5.32;0.77;;;13.60;66.50;;;;;;4990974;28;20100;-66
2020/12/28 06:24:30;;;;;;;4.85;1.30;;;13.70;66.40;;;;;;4973005;28;20686;-66
2020/12/28 06:27:14;;;;;;;5.43;0.65;;;13.70;66.30;;;;;;4985286;28;20495;-66
2020/12/28 06:29:39;;;;;;;4.75;1.15;;;13.60;66.10;;;;;;4991257;28;20065;-66
2020/12/28 06:32:16;;;;;;;4.60;1.15;;;13.60;66.40;;;;;;4973220;28;20053;-66
2020/12/28 06:34:44;;;;;;;5.07;0.77;;;13.60;66.20;;;;;;4979932;28;20045;-65
2020/12/28 06:37:10;;;;;;;6.10;0.68;;;13.60;66.40;;;;;;4966967;28;20045;-66
2020/12/28 06:39:36;;;;;;;4.10;0.80;;;13.60;66.80;;;;;;4989571;28;20042;-66
2020/12/28 06:42:13;;;;;;;3.42;0.55;;;13.60;66.50;;;;;;4991993;28;20034;-64
2020/12/28 06:44:40;;;;;;;5.00;0.70;;;13.70;66.40;;;;;;4982902;28;20763;-64
2020/12/28 06:47:23;;;;;;;3.15;0.50;;;13.70;66.40;;;;;;4966892;28;20121;-68
2020/12/28 06:49:50;;;;;;;2.20;0.50;;;13.70;66.30;;;;;;4966570;28;20085;-65
2020/12/28 06:52:16;;;;;;;3.03;0.63;;;13.70;66.30;;;;;;4998740;28;20026;-64
2020/12/28 06:54:43;;;;;;;2.70;0.70;;;13.70;66.40;;;;;;4963324;28;20049;-66
2020/12/28 06:57:09;;;;;;;3.88;1.00;;;13.70;66.50;;;;;;4983418;28;20034;-64
2020/12/28 06:59:36;;;;;;;3.70;0.70;;;13.70;66.40;;;;;;4999284;28;20022;-66
2020/12/28 07:02:03;;;;;;;1.90;0.70;;;13.60;66.30;;;;;;4986685;28;20034;-65
2020/12/28 07:04:34;;;;;;;5.30;0.80;;;13.60;66.40;;;;;;4984581;28;20030;-65
2020/12/28 07:07:07;;;;;;;3.97;0.80;;;13.60;66.40;;;;;;4965719;28;20399;-66
2020/12/28 07:09:34;;;;;;;4.13;0.60;;;13.60;66.30;;;;;;4967003;28;20018;-65
2020/12/28 07:12:10;;;;;;;3.95;0.60;;;13.60;66.20;;;;;;4984944;28;20538;-67
2020/12/28 07:14:37;;;;;;;3.22;0.77;;;13.70;66.10;;;;;;4966893;28;20383;-65
2020/12/28 07:17:04;;;;;;;5.22;0.93;;;13.60;66.80;;;;;;4966126;28;20644;-64
2020/12/28 07:19:30;;;;;;;4.72;0.82;;;13.70;66.40;;;;;;4962688;28;20033;-64
2020/12/28 07:21:55;;;;;;;5.65;0.82;;;13.60;66.40;;;;;;4951947;28;20030;-63
2020/12/28 07:24:21;;;;;;;4.32;0.80;;;13.60;66.50;;;;;;4981903;28;20037;-63
2020/12/28 07:26:47;;;;;;;8.15;1.35;;;13.70;66.90;;;;;;4972112;28;20037;-65
2020/12/28 07:29:15;;;;;;;4.70;0.70;;;13.60;66.90;;;;;;4992476;28;20499;-65
2020/12/28 07:31:42;;;;;;;5.10;0.93;;;13.60;67.10;;;;;;4958286;28;20076;-64
2020/12/28 07:34:12;;;;;;;2.53;0.60;;;13.70;67.10;;;;;;4964744;28;20022;-67
2020/12/28 07:36:41;;;;;;;3.72;0.80;;;13.60;67.10;;;;;;4947649;28;20038;-66
2020/12/28 07:39:10;;;;;;;4.97;0.60;;;13.60;67.10;;;;;;4972727;28;20507;-64
2020/12/28 07:41:35;;;;;;;2.65;0.52;;;13.60;67.20;;;;;;4961219;28;20723;-65
2020/12/28 07:44:01;;;;;;;3.85;0.88;;;13.60;67.20;;;;;;4978158;28;20090;-66
2020/12/28 07:46:33;;;;;;;5.22;0.82;;;13.60;67.00;;;;;;4982121;28;20056;-65
2020/12/28 07:49:23;;;;;;;2.85;0.60;;;13.60;66.80;;;;;;4957208;28;20023;-65
2020/12/28 07:52:02;;;;;;;1.67;0.50;;;13.60;66.70;;;;;;4959764;28;20062;-65
2020/12/28 07:54:44;;;;;;;1.55;0.50;;;13.60;66.90;;;;;;4971070;28;20027;-66
2020/12/28 07:57:17;;;;;;;4.07;0.90;;;13.60;66.70;;;;;;4970689;28;20089;-67
2020/12/28 07:59:47;;;;;;;4.18;0.68;;;13.60;66.80;;;;;;4973409;28;20126;-64
2020/12/28 08:02:51;;;;;;;2.42;0.50;;;13.60;66.80;;;;;;4957097;28;20431;-65
2020/12/28 08:05:19;;;;;;;4.40;0.70;;;13.60;66.50;;;;;;4952595;28;20518;-67
2020/12/28 08:07:44;;;;;;;3.15;0.70;;;13.60;66.70;;;;;;4955523;28;20034;-65
2020/12/28 08:10:10;;;;;;;3.70;0.70;;;13.60;66.50;;;;;;4973927;28;20030;-66
2020/12/28 08:12:51;;;;;;;3.30;0.63;;;13.60;66.70;;;;;;4956808;28;20026;-66
2020/12/28 08:15:29;;;;;;;4.13;0.70;;;13.60;66.70;;;;;;4955416;28;20033;-68
2020/12/28 08:18:09;;;;;;;4.97;0.60;;;13.60;66.60;;;;;;4973482;28;20036;-66
2020/12/28 08:20:36;;;;;;;5.53;1.00;;;13.60;66.60;;;;;;4972176;28;20023;-67
2020/12/28 08:23:02;;;;;;;3.30;0.80;;;13.60;66.80;;;;;;4956690;28;20038;-65
2020/12/28 08:25:29;;;;;;;4.10;0.63;;;13.60;66.90;;;;;;4979199;28;20484;-66
2020/12/28 08:27:56;;;;;;;6.03;0.73;;;13.60;66.90;;;;;;4982379;28;20089;-66
2020/12/28 08:30:25;;;;;;;4.05;1.00;;;13.60;66.90;;;;;;4960466;28;20127;-66
2020/12/28 08:32:51;;;;;;;5.47;0.80;;;13.60;66.90;;;;;;4980842;28;20026;-67
2020/12/28 08:35:16;;;;;;;6.85;1.05;;;13.60;67.30;;;;;;4982248;28;20395;-66
2020/12/28 08:37:49;;;;;;;3.25;1.00;;;13.60;66.90;;;;;;4960206;28;20502;-65
2020/12/28 08:40:17;;;;;;;6.88;1.10;;;13.60;66.80;;;;;;4984938;28;20499;-65
2020/12/28 08:42:43;;;;;;;4.90;0.90;;;13.60;66.80;;;;;;4980898;28;20066;-65
2020/12/28 08:45:17;;;;;;;5.50;1.30;;;13.60;66.80;;;;;;4965949;28;20050;-65
2020/12/28 08:47:43;;;;;;;3.15;0.82;;;13.60;66.80;;;;;;4967891;28;20117;-64
2020/12/28 08:50:11;;;;;;;6.68;0.98;;;13.60;66.70;;;;;;4964755;28;20114;-66
2020/12/28 08:52:47;;;;;;;4.43;1.35;;;13.60;66.70;;;;;;4986453;28;20077;-66
2020/12/28 08:55:13;;;;;;;3.92;1.25;;;13.60;66.80;;;;;;4965957;28;20073;-66
2020/12/28 08:57:38;;;;;;;3.40;1.08;;;13.60;66.80;;;;;;4986032;28;20431;-67
2020/12/28 09:00:04;;;;;;;4.45;1.10;;;13.60;66.80;;;;;;4992304;28;20030;-65
2020/12/28 09:02:30;;;;;;;3.42;0.90;;;13.60;66.70;;;;;;4991346;28;20041;-67
2020/12/28 09:04:56;;;;;;;5.07;1.13;;;13.60;67.00;;;;;;4972953;28;20023;-66
2020/12/28 09:07:24;;;;;;;6.68;1.20;;;13.60;66.90;;;;;;4983315;28;20032;-65
2020/12/28 09:09:50;;;;;;;4.20;0.93;;;13.60;67.00;;;;;;4989460;28;20084;-65
2020/12/28 09:12:16;;;;;;;5.22;1.17;;;13.60;66.90;;;;;;4987035;28;20495;-65
2020/12/28 09:14:42;;;;;;;6.60;1.30;;;13.60;66.80;;;;;;4979697;28;20026;-66
2020/12/28 09:17:08;;;;;;;6.55;1.20;;;13.60;66.90;;;;;;4985361;28;20030;-65
2020/12/28 09:19:33;;;;;;;9.43;2.05;;;13.60;67.10;;;;;;4979265;28;20587;-65
2020/12/28 09:22:00;;;;;;;7.57;1.58;;;13.60;67.30;;;;;;4985881;28;20109;-65
2020/12/28 09:24:26;;;;;;;10.95;2.00;;;13.60;67.30;;;;;;4967286;28;20033;-65
2020/12/28 09:26:55;;;;;;;6.53;1.48;;;13.60;67.70;;;;;;4978459;28;20117;-65
2020/12/28 09:29:20;;;;;;;9.23;1.90;;;13.60;67.80;;;;;;4984335;28;20027;-64
2020/12/28 09:31:46;;;;;;;7.38;1.63;;;13.60;68.20;;;;;;4983428;28;20041;-64
2020/12/28 09:34:13;;;;;;;5.43;1.35;;;13.70;68.20;;;;;;4982965;28;20041;-65
2020/12/28 09:36:38;;;;;;;7.60;1.25;;;13.70;68.30;;;;;;4990883;28;20030;-68
2020/12/28 09:39:04;;;;;;;9.32;1.60;;;13.70;68.40;;;;;;4991942;28;20034;-64
2020/12/28 09:41:30;;;;;;;10.95;1.73;;;13.60;68.20;;;;;;4991173;28;20053;-66
2020/12/28 09:43:56;;;;;;;6.78;1.40;;;13.60;68.00;;;;;;4966502;28;20383;-65
2020/12/28 09:46:22;;;;;;;6.15;1.33;;;13.70;67.90;;;;;;4965012;28;20077;-65
2020/12/28 09:48:49;;;;;;;7.38;1.30;;;13.60;67.70;;;;;;4956726;28;20026;-62
2020/12/28 09:51:15;;;;;;;6.13;1.30;;;13.70;67.80;;;;;;4973493;28;20026;-65
2020/12/28 09:53:42;;;;;;;4.30;1.10;;;13.60;67.70;;;;;;4974901;28;20026;-65
2020/12/28 09:56:08;;;;;;;6.30;1.20;;;13.60;67.70;;;;;;4991789;28;20062;-67
2020/12/28 09:58:34;;;;;;;4.35;1.10;;;13.60;67.70;;;;;;4992679;28;20100;-66
2020/12/28 10:01:00;;;;;;;5.18;1.25;;;13.60;67.60;;;;;;4992576;28;20058;-67
2020/12/28 10:03:26;;;;;;;5.43;1.27;;;13.60;67.60;;;;;;4974868;28;20037;-66
2020/12/28 10:05:52;;;;;;;5.57;1.02;;;13.60;67.60;;;;;;4974936;28;20093;-67
2020/12/28 10:08:18;;;;;;;3.95;1.13;;;13.60;67.60;;;;;;4974433;28;20442;-65
2020/12/28 10:10:44;;;;;;;4.75;1.00;;;13.60;67.60;;;;;;4991586;28;20073;-68
2020/12/28 10:13:11;;;;;;;3.30;0.90;;;13.60;67.50;;;;;;4992197;28;20041;-67
2020/12/28 10:15:37;;;;;;;2.67;1.00;;;13.60;67.40;;;;;;4990920;28;20033;-66
2020/12/28 10:18:20;;;;;;;5.35;1.10;;;13.60;67.60;;;;;;4991629;28;20030;-66
2020/12/28 10:20:46;;;;;;;4.32;0.90;;;13.60;67.30;;;;;;4990275;28;20046;-67
2020/12/28 10:23:11;;;;;;;4.13;0.88;;;13.60;67.50;;;;;;4990658;28;20026;-65
2020/12/28 10:25:37;;;;;;;4.97;1.00;;;13.60;67.30;;;;;;4971146;28;20077;-66
2020/12/28 10:28:03;;;;;;;4.18;1.25;;;13.60;67.30;;;;;;4983161;28;20101;-65
2020/12/28 10:30:28;;;;;;;2.53;0.95;;;13.60;67.30;;;;;;4980443;28;20399;-66
2020/12/28 10:32:54;;;;;;;5.28;1.08;;;13.60;67.30;;;;;;4984306;28;20050;-66
2020/12/28 10:35:19;;;;;;;8.55;1.25;;;13.70;67.40;;;;;;4979781;28;20045;-66
2020/12/28 10:37:45;;;;;;;5.78;1.45;;;13.70;67.80;;;;;;4980620;28;20022;-65
2020/12/28 10:40:10;;;;;;;5.38;1.23;;;13.70;67.90;;;;;;4975411;28;20025;-66
2020/12/28 10:42:36;;;;;;;5.10;1.10;;;13.70;67.90;;;;;;4977606;28;20029;-65
2020/12/28 10:45:02;;;;;;;3.53;0.80;;;13.70;67.70;;;;;;4990957;28;20015;-66
2020/12/28 10:47:28;;;;;;;6.50;1.02;;;13.70;67.70;;;;;;4978469;28;20038;-66
2020/12/28 10:49:53;;;;;;;2.95;0.90;;;13.70;67.60;;;;;;4964429;28;20400;-66
2020/12/28 10:52:19;;;;;;;3.95;1.08;;;13.70;67.60;;;;;;4977705;28;20023;-66
2020/12/28 10:54:44;;;;;;;4.22;0.90;;;13.70;67.40;;;;;;4982540;28;20033;-66
2020/12/28 10:57:10;;;;;;;3.28;0.90;;;13.80;67.60;;;;;;4984192;28;20771;-66
2020/12/28 10:59:36;;;;;;;5.80;1.38;;;13.80;66.90;;;;;;4963884;28;20018;-66
2020/12/28 11:02:01;;;;;;;2.35;1.02;;;13.80;67.20;;;;;;4961479;28;20500;-65
2020/12/28 11:04:27;;;;;;;3.85;1.20;;;13.80;67.50;;;;;;4963620;28;20440;-66
2020/12/28 11:06:53;;;;;;;4.68;1.05;;;13.80;67.40;;;;;;4978756;28;20125;-66
2020/12/28 11:09:18;;;;;;;3.05;0.90;;;13.70;67.60;;;;;;4957619;28;20047;-67
2020/12/28 11:11:51;;;;;;;3.15;0.90;;;13.70;67.60;;;;;;4981322;28;20134;-65
2020/12/28 11:14:17;;;;;;;8.65;1.27;;;13.70;67.60;;;;;;4972802;28;20022;-65
2020/12/28 11:16:43;;;;;;;5.15;1.20;;;13.80;67.30;;;;;;4971774;28;20045;-64
2020/12/28 11:19:09;;;;;;;20.45;2.22;;;13.70;67.20;;;;;;4973263;28;20026;-65
2020/12/28 11:21:35;;;;;;;19.17;2.58;;;13.80;67.10;;;;;;4980893;28;20030;-65
2020/12/28 11:24:03;;;;;;;21.63;12.82;;;13.70;67.00;;;;;;4979995;28;20102;-65
2020/12/28 11:26:31;;;;;;;20.02;12.00;;;13.80;66.90;;;;;;4964925;28;20038;-65
2020/12/28 11:28:57;;;;;;;129.60;116.88;;;13.80;67.30;;;;;;4989755;28;20041;-65
2020/12/28 11:31:23;;;;;;;168.85;150.65;;;13.90;67.20;;;;;;4989807;28;20054;-66
2020/12/28 11:33:49;;;;;;;347.92;267.73;;;14.00;66.70;;;;;;4990440;28;20378;-67
2020/12/28 11:36:15;;;;;;;649.03;536.22;;;14.10;66.30;;;;;;4987604;28;20026;-65
2020/12/28 11:38:42;;;;;;;552.30;450.50;;;14.10;66.60;;;;;;4983455;28;20088;-65
2020/12/28 11:41:08;;;;;;;380.73;291.75;;;14.20;66.50;;;;;;4982113;28;20464;-65
2020/12/28 11:43:34;;;;;;;303.48;236.07;;;14.30;66.50;;;;;;4979475;28;20114;-66
2020/12/28 11:46:00;;;;;;;331.98;249.65;;;14.30;66.40;;;;;;4982537;28;20034;-65
2020/12/28 11:48:25;;;;;;;366.30;287.65;;;14.40;66.40;;;;;;4961105;28;20109;-66
2020/12/28 11:50:51;;;;;;;320.48;244.60;;;14.40;66.20;;;;;;4965477;28;20065;-66
2020/12/28 11:53:17;;;;;;;296.02;231.50;;;14.50;66.20;;;;;;4965468;28;20034;-66
2020/12/28 11:58:27;;;;;;;761.60;626.38;;;14.60;66.10;;;;;;4977343;28;20037;-64
2020/12/28 12:00:53;;;;;;;459.23;365.92;;;14.70;64.60;;;;;;4981536;28;20109;-63
2020/12/28 12:03:18;;;;;;;381.60;296.58;;;14.80;62.60;;;;;;4979381;28;20085;-63
2020/12/28 12:05:44;;;;;;;298.83;237.18;;;14.90;61.40;;;;;;4983797;28;20037;-63
2020/12/28 12:08:10;;;;;;;255.50;195.30;;;15.10;60.10;;;;;;4988675;28;20102;-66
2020/12/28 12:10:35;;;;;;;160.27;127.85;;;15.30;59.30;;;;;;4981832;28;20385;-63
2020/12/28 12:13:01;;;;;;;171.75;136.45;;;15.30;59.30;;;;;;4967162;28;20031;-64
2020/12/28 12:15:26;;;;;;;161.27;128.52;;;15.30;59.10;;;;;;4978723;28;20053;-66
2020/12/28 12:17:52;;;;;;;145.45;116.07;;;15.30;59.30;;;;;;4967893;28;20033;-65
2020/12/28 12:20:18;;;;;;;174.30;134.52;;;15.40;58.50;;;;;;4963805;28;20026;-65
2020/12/28 12:22:43;;;;;;;140.80;114.53;;;15.50;58.10;;;;;;4970412;28;20431;-63
2020/12/28 12:25:09;;;;;;;85.40;68.15;;;15.60;56.90;;;;;;4991333;28;20415;-65
2020/12/28 12:27:34;;;;;;;64.40;54.08;;;15.70;56.70;;;;;;4992810;28;20033;-65
2020/12/28 12:30:00;;;;;;;57.35;44.83;;;15.70;56.80;;;;;;4970704;28;20026;-64
2020/12/28 12:32:28;;;;;;;85.78;69.20;;;15.70;56.10;;;;;;4962208;28;20014;-64
2020/12/28 12:34:54;;;;;;;104.65;93.88;;;15.70;55.80;;;;;;4975804;28;20065;-65
2020/12/28 12:37:19;;;;;;;197.07;178.13;;;15.70;55.80;;;;;;4992356;28;20065;-66
2020/12/28 12:39:45;;;;;;;132.60;119.20;;;15.60;56.00;;;;;;4992751;28;20034;-66
2020/12/28 12:42:10;;;;;;;83.97;75.22;;;15.70;55.00;;;;;;4992452;28;20022;-66
2020/12/28 12:44:37;;;;;;;46.05;41.13;;;15.60;55.40;;;;;;4969283;28;20035;-65